Time;durP1;ratioP1;P1;durP2;ratioP2;P2;SDS_P1;SDS_P2;PMS_P1;PMS_P2;Temp;Humidity;BMP_temperature;BMP_pressure;BME280_temperature;BME280_humidity;BME280_pressure;Samples;Min_cycle;Max_cycle;Signal;HPM_P1;HPM_P2
2024/01/25 00:00:31;;;;;;;33.63;18.38;;;;;;;3.60;100.00;99788.88;5143735;27;20039;-93
2024/01/25 00:02:57;;;;;;;32.05;17.35;;;;;;;3.57;100.00;99787.91;5144136;27;20035;-95
2024/01/25 00:05:23;;;;;;;30.83;16.50;;;;;;;3.75;100.00;99818.91;5143571;27;20046;-94
2024/01/25 00:07:49;;;;;;;36.47;16.88;;;;;;;3.54;100.00;99774.72;5143699;27;20047;-94
2024/01/25 00:10:17;;;;;;;37.42;19.00;;;;;;;3.67;100.00;99809.16;5131737;27;20119;-94
2024/01/25 00:12:43;;;;;;;37.35;17.27;;;;;;;3.69;100.00;99791.66;5121641;28;20050;-95
2024/01/25 00:15:10;;;;;;;32.83;17.98;;;;;;;3.70;100.00;99803.03;5121162;28;20047;-95
2024/01/25 00:17:36;;;;;;;39.38;20.00;;;;;;;3.58;100.00;99785.31;5120614;28;20055;-94
2024/01/25 00:20:04;;;;;;;39.58;19.45;;;;;;;3.55;100.00;99780.00;5121301;28;20516;-95
2024/01/25 00:22:29;;;;;;;36.28;18.08;;;;;;;3.69;100.00;99791.66;5121586;28;20071;-94
2024/01/25 00:24:59;;;;;;;36.00;18.33;;;;;;;3.46;100.00;99764.94;5135765;27;20043;-94
2024/01/25 00:27:25;;;;;;;40.03;19.13;;;;;;;3.75;100.00;99819.78;5140592;27;20029;-94
2024/01/25 00:29:51;;;;;;;33.10;17.40;;;;;;;3.60;100.00;99802.03;5141137;27;20142;-95
2024/01/25 00:32:18;;;;;;;38.30;18.65;;;;;;;3.54;100.00;99787.88;5141702;27;20035;-94
2024/01/25 00:34:45;;;;;;;35.10;19.30;;;;;;;3.50;100.00;99779.03;5139828;27;20047;-94
2024/01/25 00:37:11;;;;;;;36.97;19.50;;;;;;;3.30;100.00;99760.28;5141691;27;20059;-94
2024/01/25 00:39:37;;;;;;;43.15;20.85;;;;;;;3.47;100.00;99792.13;5142288;27;20043;-94
2024/01/25 00:42:05;;;;;;;39.60;19.55;;;;;;;3.47;100.00;99774.63;5143067;27;20111;-93
2024/01/25 00:44:32;;;;;;;40.90;21.88;;;;;;;3.45;100.00;99778.09;5141860;27;20500;-94
2024/01/25 00:46:59;;;;;;;41.72;21.13;;;;;;;3.57;100.00;99791.41;5142342;27;20047;-94
2024/01/25 00:49:27;;;;;;;41.38;21.08;;;;;;;3.69;100.00;99828.47;5142433;27;20563;-93
2024/01/25 00:51:59;;;;;;;36.95;18.15;;;;;;;3.21;100.00;99747.88;5142500;27;20050;-93
2024/01/25 00:54:25;;;;;;;44.42;19.88;;;;;;;3.19;100.00;99738.16;5140875;27;20552;-94
2024/01/25 00:56:52;;;;;;;40.30;20.13;;;;;;;3.40;100.00;99796.38;5120973;28;20040;-93
2024/01/25 00:59:19;;;;;;;37.97;18.83;;;;;;;3.24;100.00;99760.16;5120112;28;20074;-93
2024/01/25 01:01:47;;;;;;;42.55;20.98;;;;;;;3.42;100.00;99805.19;5120677;28;20035;-93
2024/01/25 01:04:13;;;;;;;33.55;18.80;;;;;;;3.22;100.00;99767.13;5121187;28;20040;-93
2024/01/25 01:06:41;;;;;;;39.08;18.70;;;;;;;3.65;100.00;99836.28;5120939;28;20079;-94
2024/01/25 01:09:07;;;;;;;38.08;19.15;;;;;;;3.17;100.00;99755.66;5121487;28;20074;-94
2024/01/25 01:11:33;;;;;;;37.92;19.25;;;;;;;3.21;100.00;99763.63;5120718;28;20046;-93
2024/01/25 01:13:59;;;;;;;39.45;21.77;;;;;;;3.17;100.00;99764.44;5120616;28;20058;-93
2024/01/25 01:16:25;;;;;;;35.13;18.63;;;;;;;3.25;100.00;99778.59;5120046;28;20135;-94
2024/01/25 01:18:51;;;;;;;36.17;18.67;;;;;;;3.22;100.00;99785.53;5120366;28;20549;-93
2024/01/25 01:21:17;;;;;;;42.20;19.52;;;;;;;3.21;100.00;99778.50;5118576;28;20039;-94
2024/01/25 01:23:44;;;;;;;40.08;19.48;;;;;;;3.32;100.00;99811.16;5120378;28;20048;-94
2024/01/25 01:26:11;;;;;;;35.65;18.33;;;;;;;3.00;100.00;99758.84;5119721;28;20043;-93
2024/01/25 01:28:37;;;;;;;37.20;18.25;;;;;;;3.06;100.00;99785.25;5119406;28;20059;-93
2024/01/25 01:31:05;;;;;;;35.42;19.48;;;;;;;3.02;100.00;99764.13;5119641;28;20048;-93
2024/01/25 01:33:31;;;;;;;36.85;19.10;;;;;;;3.19;100.00;99803.84;5120086;28;20040;-93
2024/01/25 01:35:57;;;;;;;33.22;17.80;;;;;;;3.15;100.00;99800.31;5118897;28;20043;-94
2024/01/25 01:38:23;;;;;;;38.55;17.75;;;;;;;2.95;100.00;99771.03;5119689;28;20043;-94
2024/01/25 01:40:50;;;;;;;34.47;17.38;;;;;;;2.85;100.00;99763.81;5119254;28;20067;-94
2024/01/25 01:43:19;;;;;;;35.95;17.77;;;;;;;3.19;100.00;99801.22;5119580;28;20458;-94
2024/01/25 01:45:45;;;;;;;37.45;19.77;;;;;;;2.74;100.00;99747.81;5119865;28;20063;-95
2024/01/25 01:48:12;;;;;;;41.55;18.77;;;;;;;2.85;100.00;99771.69;5119436;28;20105;-92
2024/01/25 01:50:38;;;;;;;32.15;17.38;;;;;;;3.14;100.00;99816.91;5119848;28;20044;-94
2024/01/25 01:53:07;;;;;;;40.42;18.88;;;;;;;3.08;100.00;99799.31;5120216;28;20058;-94
2024/01/25 01:55:33;;;;;;;33.55;17.80;;;;;;;2.68;100.00;99722.31;5120439;28;20050;-95
2024/01/25 01:58:02;;;;;;;35.83;18.52;;;;;;;2.57;100.00;99718.59;5118848;28;20031;-94
2024/01/25 02:00:30;;;;;;;34.85;17.10;;;;;;;2.70;100.00;99735.50;5118592;28;20104;-94
2024/01/25 02:02:57;;;;;;;35.40;19.40;;;;;;;2.60;100.00;99721.31;5120090;28;20063;-94
2024/01/25 02:05:23;;;;;;;33.42;16.13;;;;;;;2.86;100.00;99768.19;5126529;27;20073;-93
2024/01/25 02:07:49;;;;;;;33.05;16.85;;;;;;;2.53;100.00;99729.00;5138972;27;20133;-94
2024/01/25 02:10:16;;;;;;;33.85;16.48;;;;;;;2.86;100.00;99787.50;5137284;27;20496;-95
2024/01/25 02:12:41;;;;;;;30.52;15.98;;;;;;;2.58;100.00;99738.75;5122304;27;20046;-94
2024/01/25 02:15:09;;;;;;;32.35;16.35;;;;;;;2.97;100.00;99797.31;5118974;28;20136;-94
2024/01/25 02:17:35;;;;;;;34.80;17.25;;;;;;;2.85;100.00;99769.94;5119035;28;20043;-95
2024/01/25 02:20:03;;;;;;;35.28;17.23;;;;;;;2.79;100.00;99772.44;5119855;28;20039;-95
2024/01/25 02:22:30;;;;;;;29.83;16.17;;;;;;;2.82;100.00;99780.41;5119362;28;20130;-94
2024/01/25 02:24:56;;;;;;;32.00;15.88;;;;;;;2.60;100.00;99759.78;5119240;28;20047;-94
2024/01/25 02:27:22;;;;;;;32.22;15.18;;;;;;;2.20;100.00;99702.09;5119491;28;20436;-94
2024/01/25 02:29:47;;;;;;;29.85;15.70;;;;;;;2.48;100.00;99742.03;5119604;28;20508;-93
2024/01/25 02:32:13;;;;;;;28.67;14.50;;;;;;;2.14;100.00;99691.44;5119616;28;20138;-93
2024/01/25 02:34:39;;;;;;;32.58;15.13;;;;;;;2.73;100.00;99767.06;5123040;28;20043;-94
2024/01/25 02:37:05;;;;;;;31.15;15.68;;;;;;;2.74;100.00;99770.59;5140749;28;20043;-94
2024/01/25 02:39:33;;;;;;;27.17;14.55;;;;;;;2.52;100.00;99758.75;5139921;28;20047;-93
2024/01/25 02:41:58;;;;;;;30.27;15.43;;;;;;;2.16;100.00;99681.00;5140557;28;20034;-94
2024/01/25 02:44:24;;;;;;;30.52;16.15;;;;;;;2.15;100.00;99693.25;5133203;28;20047;-94
2024/01/25 02:46:50;;;;;;;32.60;16.30;;;;;;;2.57;100.00;99760.59;5119820;28;20048;-92
2024/01/25 02:49:16;;;;;;;29.45;15.77;;;;;;;2.55;100.00;99754.44;5117377;28;20051;-95
2024/01/25 02:51:42;;;;;;;33.92;16.58;;;;;;;2.12;100.00;99687.91;5120013;28;20134;-95
2024/01/25 02:54:08;;;;;;;38.88;18.17;;;;;;;2.24;100.00;99697.78;5119004;28;20043;-94
2024/01/25 02:56:35;;;;;;;31.83;15.80;;;;;;;2.38;100.00;99717.31;5118490;28;20040;-94
2024/01/25 02:59:01;;;;;;;35.22;17.63;;;;;;;2.29;100.00;99679.53;5118562;28;20047;-93
2024/01/25 03:01:27;;;;;;;34.22;17.50;;;;;;;2.66;100.00;99750.28;5119184;28;20129;-94
2024/01/25 03:03:53;;;;;;;31.17;15.82;;;;;;;2.30;100.00;99697.94;5119085;28;20051;-93
2024/01/25 03:06:20;;;;;;;32.40;16.33;;;;;;;2.21;100.00;99672.38;5119267;27;20043;-95
2024/01/25 03:08:45;;;;;;;30.40;14.80;;;;;;;2.01;100.00;99663.19;5119293;28;20040;-93
2024/01/25 03:11:11;;;;;;;28.35;15.00;;;;;;;1.98;100.00;99665.75;5119140;28;20515;-95
2024/01/25 03:13:39;;;;;;;33.10;15.40;;;;;;;2.45;100.00;99749.84;5119345;28;20046;-96
2024/01/25 03:16:05;;;;;;;25.52;14.15;;;;;;;1.94;100.00;99671.78;5118763;28;20055;-94
2024/01/25 03:18:31;;;;;;;30.67;16.83;;;;;;;2.30;100.00;99713.69;5119344;28;20522;-94
2024/01/25 03:20:57;;;;;;;34.42;17.17;;;;;;;2.01;100.00;99656.19;5119079;28;20107;-94
2024/01/25 03:23:23;;;;;;;33.40;17.17;;;;;;;2.08;100.00;99662.44;5124660;27;20070;-94
2024/01/25 03:25:49;;;;;;;30.73;15.27;;;;;;;2.09;100.00;99658.13;5143956;27;20059;-94
2024/01/25 03:28:16;;;;;;;32.10;16.02;;;;;;;1.97;100.00;99650.84;5144195;27;20040;-93
2024/01/25 03:30:43;;;;;;;32.35;14.50;;;;;;;2.04;100.00;99669.38;5143272;27;20043;-93
2024/01/25 03:33:09;;;;;;;28.45;14.75;;;;;;;1.81;100.00;99654.88;5143058;27;20047;-93
2024/01/25 03:35:35;;;;;;;25.92;14.00;;;;;;;1.75;100.00;99646.88;5139486;27;20039;-95
2024/01/25 03:38:01;;;;;;;28.83;14.25;;;;;;;1.90;100.00;99675.19;5123801;28;20111;-93
2024/01/25 03:40:28;;;;;;;24.27;13.93;;;;;;;1.98;100.00;99686.75;5123716;28;20111;-93
2024/01/25 03:42:53;;;;;;;26.05;13.85;;;;;;;2.17;100.00;99702.03;5123106;28;20043;-92
2024/01/25 03:45:19;;;;;;;31.58;13.52;;;;;;;1.74;100.00;99646.00;5122053;28;20066;-93
2024/01/25 03:47:47;;;;;;;27.30;13.23;;;;;;;1.92;100.00;99689.22;5122608;28;20039;-93
2024/01/25 03:50:13;;;;;;;22.77;12.80;;;;;;;1.69;100.00;99646.72;5123124;28;20047;-93
2024/01/25 03:52:38;;;;;;;26.10;12.18;;;;;;;1.73;100.00;99659.94;5122660;28;20096;-93
2024/01/25 03:55:05;;;;;;;26.38;14.55;;;;;;;1.60;100.00;99623.81;5120715;28;20043;-92
2024/01/25 03:57:31;;;;;;;32.08;16.10;;;;;;;1.60;100.00;99647.41;5129529;27;20046;-93
2024/01/25 03:59:57;;;;;;;33.90;15.32;;;;;;;1.86;100.00;99682.09;5123039;28;20048;-92
2024/01/25 04:02:23;;;;;;;27.60;14.85;;;;;;;1.47;100.00;99642.75;5133883;27;20035;-94
2024/01/25 04:04:50;;;;;;;30.27;15.52;;;;;;;1.72;100.00;99691.41;5143185;27;20054;-94
2024/01/25 04:07:16;;;;;;;25.85;15.77;;;;;;;1.61;100.00;99651.81;5143942;27;20055;-93
2024/01/25 04:09:42;;;;;;;31.15;16.60;;;;;;;2.01;100.00;99734.00;5136290;27;20447;-93
2024/01/25 04:12:08;;;;;;;27.17;15.50;;;;;;;1.52;100.00;99654.19;5123686;28;20116;-93
2024/01/25 04:14:34;;;;;;;28.10;15.75;;;;;;;2.00;100.00;99727.00;5122967;28;20063;-93
2024/01/25 04:16:59;;;;;;;28.67;13.98;;;;;;;1.60;100.00;99650.91;5122113;28;20051;-93
2024/01/25 04:19:25;;;;;;;29.13;14.85;;;;;;;1.58;100.00;99681.47;5139611;27;20065;-95
2024/01/25 04:21:54;;;;;;;26.85;13.57;;;;;;;1.38;100.00;99646.91;5129017;27;20044;-93
2024/01/25 04:24:19;;;;;;;28.73;13.30;;;;;;;1.82;100.00;99724.81;5122296;28;20134;-94
2024/01/25 04:26:45;;;;;;;29.77;13.80;;;;;;;1.79;100.00;99720.41;5121438;28;20063;-94
2024/01/25 04:29:11;;;;;;;23.15;12.57;;;;;;;1.30;100.00;99647.56;5121649;28;20043;-95
2024/01/25 04:31:43;;;;;;;24.55;12.32;;;;;;;1.27;100.00;99644.88;5121186;28;20042;-95
2024/01/25 04:34:09;;;;;;;22.20;13.02;;;;;;;1.35;100.00;99643.34;5125351;27;20048;-94
2024/01/25 04:36:36;;;;;;;23.77;12.45;;;;;;;1.32;100.00;99645.88;5121875;28;20036;-94
2024/01/25 04:39:03;;;;;;;26.75;14.43;;;;;;;1.71;100.00;99718.44;5121420;28;20060;-93
2024/01/25 04:41:29;;;;;;;23.67;14.13;;;;;;;1.77;100.00;99726.47;5121554;28;20050;-93
2024/01/25 04:43:55;;;;;;;25.70;13.43;;;;;;;1.56;100.00;99680.56;5128316;27;20067;-94
2024/01/25 04:46:21;;;;;;;28.13;15.07;;;;;;;1.33;100.00;99627.59;5121998;28;20048;-93
2024/01/25 04:48:46;;;;;;;28.42;14.77;;;;;;;1.53;100.00;99679.59;5122864;27;20039;-94
2024/01/25 04:51:15;;;;;;;30.40;15.07;;;;;;;1.85;100.00;99728.41;5141225;27;20039;-93
2024/01/25 04:53:41;;;;;;;29.88;17.13;;;;;;;1.57;100.00;99689.28;5140814;27;20038;-93
2024/01/25 04:56:09;;;;;;;30.55;14.57;;;;;;;1.56;100.00;99680.56;5127217;27;20047;-95
2024/01/25 04:58:35;;;;;;;25.98;15.05;;;;;;;1.58;100.00;99683.19;5119748;28;20036;-95
2024/01/25 05:01:00;;;;;;;30.95;16.17;;;;;;;1.71;100.00;99710.59;5119096;28;20077;-94
2024/01/25 05:03:26;;;;;;;26.17;14.25;;;;;;;1.74;100.00;99713.28;5120665;28;20040;-93
2024/01/25 05:05:52;;;;;;;31.30;16.10;;;;;;;1.16;100.00;99626.28;5120388;28;20048;-95
2024/01/25 05:08:18;;;;;;;26.83;14.35;;;;;;;1.35;100.00;99641.59;5120894;28;20092;-96
2024/01/25 05:10:44;;;;;;;29.27;14.15;;;;;;;1.54;100.00;99681.34;5120183;28;20043;-94
2024/01/25 05:13:12;;;;;;;30.67;16.23;;;;;;;1.20;100.00;99634.25;5119820;28;20224;-94
2024/01/25 05:15:38;;;;;;;35.00;16.90;;;;;;;1.28;100.00;99644.03;5120399;28;20404;-93
2024/01/25 05:18:05;;;;;;;31.35;16.05;;;;;;;1.54;100.00;99689.19;5123835;27;20131;-94
2024/01/25 05:20:33;;;;;;;31.67;16.80;;;;;;;1.21;100.00;99636.03;5120606;28;20143;-95
2024/01/25 05:22:59;;;;;;;31.33;16.60;;;;;;;1.90;100.00;99718.03;5120778;28;20516;-93
2024/01/25 05:25:26;;;;;;;31.65;16.10;;;;;;;1.57;100.00;99653.47;5120100;28;20076;-94
2024/01/25 05:27:52;;;;;;;34.67;16.90;;;;;;;1.48;100.00;99637.53;5138519;27;20058;-93
2024/01/25 05:30:19;;;;;;;29.08;15.43;;;;;;;1.63;100.00;99660.59;5141689;27;20564;-93
2024/01/25 05:32:46;;;;;;;30.08;16.02;;;;;;;2.07;100.00;99730.66;5141212;27;20043;-94
2024/01/25 05:35:12;;;;;;;29.02;16.17;;;;;;;1.93;100.00;99711.97;5130719;27;20040;-94
2024/01/25 05:37:37;;;;;;;37.90;17.63;;;;;;;1.96;100.00;99709.44;5127925;27;20035;-94
2024/01/25 05:40:05;;;;;;;36.22;17.70;;;;;;;2.30;100.00;99750.41;5140479;27;20135;-93
2024/01/25 05:42:32;;;;;;;33.97;16.85;;;;;;;2.06;100.00;99719.28;5129184;27;20051;-93
2024/01/25 05:44:57;;;;;;;39.08;18.77;;;;;;;1.91;100.00;99669.97;5119128;28;20043;-93
2024/01/25 05:47:25;;;;;;;37.35;20.25;;;;;;;2.30;100.00;99733.75;5119409;28;20408;-94
2024/01/25 05:49:51;;;;;;;40.15;21.13;;;;;;;1.91;100.00;99667.34;5119570;28;20046;-95
2024/01/25 05:52:17;;;;;;;35.63;19.35;;;;;;;1.98;100.00;99674.50;5119985;28;20046;-94
2024/01/25 05:54:43;;;;;;;33.00;17.95;;;;;;;1.91;100.00;99656.88;5119459;28;20067;-92
2024/01/25 05:57:09;;;;;;;36.28;18.23;;;;;;;2.30;100.00;99712.75;5119904;27;20138;-94
2024/01/25 05:59:35;;;;;;;37.50;17.58;;;;;;;2.36;100.00;99726.03;5125175;27;20039;-93
2024/01/25 06:02:01;;;;;;;34.05;17.70;;;;;;;2.28;100.00;99719.72;5120903;27;20054;-94
2024/01/25 06:04:29;;;;;;;35.03;18.27;;;;;;;1.94;100.00;99658.66;5118638;28;20044;-95
2024/01/25 06:06:54;;;;;;;34.25;18.40;;;;;;;2.01;100.00;99692.91;5129480;27;20049;-93
2024/01/25 06:09:20;;;;;;;36.83;17.92;;;;;;;2.33;100.00;99767.97;5123667;27;20048;-94
2024/01/25 06:11:46;;;;;;;32.25;17.75;;;;;;;2.18;100.00;99709.03;5118036;28;20048;-94
2024/01/25 06:14:12;;;;;;;35.15;18.63;;;;;;;2.28;100.00;99720.63;5126176;27;20043;-92
2024/01/25 06:16:38;;;;;;;36.75;18.25;;;;;;;2.55;100.00;99750.94;5126868;27;20055;-94
2024/01/25 06:19:04;;;;;;;33.85;17.17;;;;;;;2.11;100.00;99691.41;5137155;28;20031;-94
2024/01/25 06:21:33;;;;;;;39.53;19.25;;;;;;;2.37;100.00;99728.69;5136361;28;20046;-93
2024/01/25 06:23:59;;;;;;;36.65;18.63;;;;;;;2.57;100.00;99764.97;5120206;28;20039;-95
2024/01/25 06:26:25;;;;;;;31.00;18.38;;;;;;;2.30;100.00;99720.63;5126734;28;20054;-93
2024/01/25 06:28:54;;;;;;;33.20;18.08;;;;;;;2.78;100.00;99796.06;5119417;28;20056;-93
2024/01/25 06:31:20;;;;;;;34.75;18.67;;;;;;;2.55;100.00;99737.81;5117962;28;20050;-93
2024/01/25 06:33:50;;;;;;;37.17;17.63;;;;;;;2.66;100.00;99760.78;5119989;27;20479;-94
2024/01/25 06:36:16;;;;;;;29.80;16.38;;;;;;;2.68;100.00;99768.72;5119201;28;20056;-93
2024/01/25 06:38:43;;;;;;;38.55;17.33;;;;;;;2.87;100.00;99780.47;5123006;28;20031;-94
2024/01/25 06:41:09;;;;;;;33.55;17.40;;;;;;;3.03;100.00;99828.97;5120540;28;20450;-93
2024/01/25 06:43:35;;;;;;;29.80;17.45;;;;;;;2.68;100.00;99774.84;5119884;28;20044;-92
2024/01/25 06:46:00;;;;;;;39.28;19.83;;;;;;;2.75;100.00;99774.97;5121453;28;20050;-93
2024/01/25 06:48:26;;;;;;;31.13;16.63;;;;;;;2.64;100.00;99741.50;5127753;27;20134;-93
2024/01/25 06:50:52;;;;;;;34.15;17.05;;;;;;;2.87;100.00;99765.59;5117515;28;20039;-93
2024/01/25 06:53:19;;;;;;;30.50;17.00;;;;;;;2.73;100.00;99750.41;5129863;28;20046;-93
2024/01/25 06:55:46;;;;;;;36.63;18.65;;;;;;;2.48;100.00;99718.41;5117033;28;20042;-91
2024/01/25 06:58:13;;;;;;;29.27;16.75;;;;;;;2.88;100.00;99798.00;5116786;28;20031;-92
2024/01/25 07:00:38;;;;;;;36.38;18.30;;;;;;;2.64;100.00;99735.34;5125522;27;20134;-92
2024/01/25 07:03:05;;;;;;;34.25;18.00;;;;;;;2.78;100.00;99725.16;5121665;28;20067;-92
2024/01/25 07:05:33;;;;;;;31.55;17.90;;;;;;;2.76;100.00;99756.63;5132779;27;20128;-93
2024/01/25 07:07:59;;;;;;;32.88;17.67;;;;;;;2.56;100.00;99726.44;5122988;27;20039;-94
2024/01/25 07:10:25;;;;;;;30.58;17.75;;;;;;;2.64;100.00;99724.84;5119542;28;20046;-94
2024/01/25 07:12:53;;;;;;;35.42;17.50;;;;;;;3.13;100.00;99801.13;5122388;27;20133;-94
2024/01/25 07:15:19;;;;;;;34.90;17.42;;;;;;;3.13;100.00;99790.63;5136737;27;20035;-91
2024/01/25 07:17:45;;;;;;;33.50;18.20;;;;;;;2.84;100.00;99730.50;5129400;27;20062;-94
2024/01/25 07:20:11;;;;;;;36.22;18.55;;;;;;;3.28;100.00;99764.63;5128996;27;20066;-93
2024/01/25 07:22:37;;;;;;;28.50;16.42;;;;;;;3.09;100.00;99734.47;5122285;27;20040;-93
2024/01/25 07:25:03;;;;;;;31.95;17.45;;;;;;;3.25;100.00;99759.28;5121732;27;20134;-93
2024/01/25 07:27:30;;;;;;;27.35;17.27;;;;;;;3.21;100.00;99731.19;5131960;27;20068;-92
2024/01/25 07:29:57;;;;;;;37.08;18.90;;;;;;;3.42;100.00;99759.59;5131421;27;20508;-94
2024/01/25 07:32:24;;;;;;;33.22;19.30;;;;;;;3.57;100.00;99777.41;5127482;27;20048;-93
2024/01/25 07:34:50;;;;;;;37.20;20.58;;;;;;;3.45;100.00;99738.63;5128324;27;20097;-94
2024/01/25 07:37:18;;;;;;;36.25;20.73;;;;;;;3.17;100.00;99697.84;5120830;27;20035;-94
2024/01/25 07:39:44;;;;;;;35.42;19.15;;;;;;;3.66;100.00;99767.91;5120730;27;20040;-92
2024/01/25 07:42:10;;;;;;;35.40;20.13;;;;;;;3.62;100.00;99752.03;5120376;27;20088;-93
2024/01/25 07:44:36;;;;;;;33.85;19.20;;;;;;;3.44;100.00;99706.19;5132755;27;20131;-93
2024/01/25 07:47:03;;;;;;;36.13;20.23;;;;;;;3.50;100.00;99729.06;5129454;27;20035;-94
2024/01/25 07:49:29;;;;;;;36.15;17.27;;;;;;;3.76;100.00;99771.59;5129050;27;20046;-93
2024/01/25 07:51:56;;;;;;;35.65;18.10;;;;;;;3.58;100.00;99730.09;5131268;27;20043;-93
2024/01/25 07:54:22;;;;;;;34.08;18.25;;;;;;;3.72;100.00;99735.56;5122785;27;20039;-93
2024/01/25 07:56:48;;;;;;;33.28;18.83;;;;;;;3.65;100.00;99731.06;5128067;27;20043;-94
2024/01/25 07:59:14;;;;;;;33.63;19.00;;;;;;;3.76;100.00;99750.53;5131688;27;20073;-92
2024/01/25 08:01:40;;;;;;;36.40;18.55;;;;;;;3.93;100.00;99758.72;5140562;27;20043;-94
2024/01/25 08:04:07;;;;;;;34.97;18.77;;;;;;;3.68;100.00;99697.78;5136249;27;20043;-93
2024/01/25 08:06:33;;;;;;;31.83;19.13;;;;;;;3.62;100.00;99684.56;5121139;27;20032;-94
2024/01/25 08:08:58;;;;;;;31.92;18.15;;;;;;;3.58;100.00;99680.13;5135131;27;20040;-94
2024/01/25 08:11:24;;;;;;;30.92;17.65;;;;;;;3.79;100.00;99692.69;5124430;27;20066;-94
2024/01/25 08:13:50;;;;;;;36.42;18.95;;;;;;;3.83;100.00;99717.31;5130129;27;20175;-94
2024/01/25 08:16:20;;;;;;;35.80;18.63;;;;;;;3.94;100.00;99725.38;5122371;27;20068;-93
2024/01/25 08:18:46;;;;;;;33.40;17.92;;;;;;;4.11;100.00;99756.34;5128223;27;20035;-94
2024/01/25 08:21:14;;;;;;;33.08;17.48;;;;;;;4.09;100.00;99733.50;5137872;27;20076;-94
2024/01/25 08:23:40;;;;;;;32.03;16.90;;;;;;;4.06;100.00;99701.88;5134207;27;20046;-95
2024/01/25 08:26:09;;;;;;;32.05;18.00;;;;;;;4.31;100.00;99729.41;5119982;27;20046;-93
2024/01/25 08:28:36;;;;;;;35.40;17.90;;;;;;;3.95;100.00;99682.41;5123971;27;20038;-94
2024/01/25 08:31:02;;;;;;;31.45;17.30;;;;;;;3.94;100.00;99681.50;5130185;27;20088;-93
2024/01/25 08:33:29;;;;;;;34.63;19.35;;;;;;;4.28;100.00;99748.69;5116994;28;20031;-93
2024/01/25 08:35:55;;;;;;;31.40;19.17;;;;;;;4.05;100.00;99708.88;5121207;27;20031;-95
2024/01/25 08:38:22;;;;;;;39.53;20.27;;;;;;;4.20;100.00;99716.09;5116430;28;20090;-95
2024/01/25 08:40:48;;;;;;;35.65;19.15;;;;;;;4.23;100.00;99718.78;5125203;27;20138;-93
2024/01/25 08:43:14;;;;;;;35.80;20.10;;;;;;;4.15;100.00;99699.38;5123939;27;20465;-93
2024/01/25 08:45:40;;;;;;;32.88;17.13;;;;;;;4.65;100.00;99777.28;5117954;27;20093;-94
2024/01/25 08:48:08;;;;;;;31.15;16.65;;;;;;;4.25;100.00;99693.38;5120638;27;20055;-94
2024/01/25 08:50:34;;;;;;;38.78;17.30;;;;;;;4.74;100.00;99757.19;5126907;27;20047;-94
2024/01/25 08:53:00;;;;;;;47.17;19.35;;;;;;;4.90;100.00;99767.91;5121922;27;20545;-94
2024/01/25 08:55:27;;;;;;;44.70;20.30;;;;;;;4.47;100.00;99696.28;5123275;27;20407;-95
2024/01/25 08:57:53;;;;;;;38.70;18.85;;;;;;;4.87;100.00;99739.75;5122761;27;20480;-93
2024/01/25 09:00:19;;;;;;;34.03;17.80;;;;;;;5.15;100.00;99763.81;5125538;27;20054;-94
2024/01/25 09:02:45;;;;;;;32.50;17.73;;;;;;;5.02;100.00;99732.91;5121095;27;20043;-94
2024/01/25 09:05:11;;;;;;;33.25;19.63;;;;;;;5.15;100.00;99759.41;5127873;27;20093;-93
2024/01/25 09:07:38;;;;;;;34.42;19.98;;;;;;;4.98;100.00;99729.34;5125405;27;20485;-95
2024/01/25 09:10:05;;;;;;;34.40;19.33;;;;;;;5.30;100.00;99769.25;5122620;27;20046;-94
2024/01/25 09:12:32;;;;;;;31.20;18.25;;;;;;;5.16;100.00;99726.00;5120849;27;20066;-92
2024/01/25 09:14:58;;;;;;;36.85;17.95;;;;;;;5.13;100.00;99721.59;5122859;27;20041;-94
2024/01/25 09:17:24;;;;;;;34.97;16.13;;;;;;;5.35;100.00;99767.50;5121056;27;20043;-95
2024/01/25 09:19:50;;;;;;;29.65;16.85;;;;;;;5.34;100.00;99775.44;5124691;27;20035;-95
2024/01/25 09:22:19;;;;;;;28.98;16.55;;;;;;;5.46;100.00;99772.91;5114908;27;20554;-95
2024/01/25 09:24:44;;;;;;;34.65;17.45;;;;;;;5.37;100.00;99746.44;5117122;27;20164;-95
2024/01/25 09:27:10;;;;;;;30.30;16.60;;;;;;;5.52;100.00;99765.03;5125091;27;20048;-93
2024/01/25 09:29:38;;;;;;;27.95;17.95;;;;;;;5.41;100.00;99748.25;5123794;27;20166;-94
2024/01/25 09:32:04;;;;;;;29.88;18.45;;;;;;;5.31;100.00;99749.91;5116916;27;20129;-93
2024/01/25 09:34:30;;;;;;;31.13;17.20;;;;;;;5.46;100.00;99779.94;5123244;27;20032;-94
2024/01/25 09:36:56;;;;;;;31.83;17.05;;;;;;;5.21;100.00;99716.41;5126453;27;20054;-93
2024/01/25 09:39:22;;;;;;;30.52;18.35;;;;;;;5.68;100.00;99783.66;5122926;27;20067;-94
2024/01/25 09:41:47;;;;;;;34.78;17.55;;;;;;;5.92;100.00;99807.63;5124505;27;20164;-93
2024/01/25 09:44:13;;;;;;;30.65;16.58;;;;;;;5.91;100.00;99774.19;5124191;27;20535;-93
2024/01/25 09:46:42;;;;;;;32.60;17.02;;;;;;;5.70;100.00;99727.41;5121941;27;20064;-94
2024/01/25 09:49:08;;;;;;;40.25;22.35;;;;;;;6.19;100.00;99795.53;5121176;27;20138;-93
2024/01/25 09:51:37;;;;;;;41.97;20.77;;;;;;;6.09;100.00;99746.16;5120733;27;20043;-93
2024/01/25 09:54:04;;;;;;;39.30;21.73;;;;;;;6.34;100.00;99787.72;5120159;27;20047;-95
2024/01/25 09:56:32;;;;;;;44.20;21.33;;;;;;;6.26;100.00;99770.94;5122192;27;20043;-94
2024/01/25 09:58:58;;;;;;;51.10;21.80;;;;;;;6.15;100.00;99747.09;5119197;28;20023;-94
2024/01/25 10:01:24;;;;;;;52.55;22.08;;;;;;;6.44;100.00;99786.03;5117250;28;20131;-94
2024/01/25 10:03:52;;;;;;;46.30;21.80;;;;;;;6.22;100.00;99747.13;5124452;27;20063;-93
2024/01/25 10:06:18;;;;;;;54.85;22.60;;;;;;;6.52;100.00;99784.31;5120490;27;20051;-95
2024/01/25 10:08:45;;;;;;;35.92;21.58;;;;;;;6.48;100.00;99742.00;5124089;27;20042;-92
2024/01/25 10:11:12;;;;;;;40.72;21.20;;;;;;;6.65;100.00;99757.94;5123524;27;20039;-93
2024/01/25 10:13:41;;;;;;;43.05;23.48;;;;;;;6.49;100.00;99720.88;5120081;27;20085;-94
2024/01/25 10:16:07;;;;;;;43.50;22.75;;;;;;;6.36;100.00;99693.50;5121074;28;20044;-94
2024/01/25 10:18:33;;;;;;;43.58;23.38;;;;;;;6.82;100.00;99744.81;5121633;27;20493;-94
2024/01/25 10:21:00;;;;;;;40.20;22.75;;;;;;;6.71;100.00;99699.81;5123025;28;20034;-95
2024/01/25 10:23:28;;;;;;;43.47;23.95;;;;;;;7.10;100.00;99740.50;5123331;28;20032;-94
2024/01/25 10:25:56;;;;;;;43.08;23.48;;;;;;;6.87;100.00;99676.94;5122195;28;20131;-94
2024/01/25 10:28:24;;;;;;;40.30;23.48;;;;;;;7.10;100.00;99703.47;5125206;28;20054;-95
2024/01/25 10:30:50;;;;;;;37.70;21.30;;;;;;;7.38;100.00;99728.19;5120476;27;20031;-95
2024/01/25 10:33:17;;;;;;;42.15;23.10;;;;;;;7.06;100.00;99665.53;5121425;27;20462;-95
2024/01/25 10:35:49;;;;;;;39.70;21.98;;;;;;;7.34;100.00;99710.53;5127063;27;20032;-94
2024/01/25 10:38:17;;;;;;;41.63;22.25;;;;;;;7.45;100.00;99731.72;5120446;27;20051;-94
2024/01/25 10:40:43;;;;;;;39.72;22.25;;;;;;;7.61;100.00;99760.88;5125073;27;20433;-93
2024/01/25 10:43:10;;;;;;;40.70;22.58;;;;;;;7.37;100.00;99723.75;5124929;27;20043;-94
2024/01/25 10:45:36;;;;;;;46.17;23.38;;;;;;;7.57;100.00;99743.22;5130363;27;20035;-95
2024/01/25 10:48:03;;;;;;;42.20;24.50;;;;;;;7.38;100.00;99696.44;5122894;27;20058;-94
2024/01/25 10:50:29;;;;;;;42.42;24.33;;;;;;;7.39;100.00;99675.28;5126141;27;20039;-95
2024/01/25 10:52:56;;;;;;;49.25;25.27;;;;;;;7.43;100.00;99673.50;5123209;27;20511;-93
2024/01/25 10:55:25;;;;;;;48.38;26.27;;;;;;;7.49;100.00;99667.34;5121627;27;20063;-95
2024/01/25 10:57:52;;;;;;;44.28;25.08;;;;;;;7.53;100.00;99671.75;5130526;27;20063;-92
2024/01/25 11:00:18;;;;;;;41.10;24.48;;;;;;;7.78;100.00;99689.34;5123497;27;20496;-94
2024/01/25 11:02:45;;;;;;;45.47;25.13;;;;;;;8.09;100.00;99721.13;5128498;27;20096;-94
2024/01/25 11:05:12;;;;;;;44.28;25.17;;;;;;;7.99;100.00;99690.22;5131596;27;20039;-93
2024/01/25 11:07:44;;;;;;;47.65;26.80;;;;;;;7.85;100.00;99650.53;5128203;27;20134;-95
2024/01/25 11:10:16;;;;;;;44.25;26.17;;;;;;;8.30;100.00;99703.41;5131808;27;20431;-95
2024/01/25 11:12:59;;;;;;;46.83;26.92;;;;;;;8.20;100.00;99653.09;5122434;27;20048;-94